createdAt,value
2022-11-14T00:01:50.336Z,13.73
2022-11-14T00:04:40.748Z,12.88
2022-11-14T00:07:57.272Z,17.30
2022-11-14T00:10:46.692Z,13.30
2022-11-14T00:13:33.744Z,16.10
2022-11-14T00:16:20.974Z,12.85
2022-11-14T00:19:08.439Z,13.63
2022-11-14T00:21:54.882Z,13.40
2022-11-14T00:24:42.051Z,11.95
2022-11-14T00:27:28.685Z,14.27
2022-11-14T00:30:40.670Z,17.35
2022-11-14T00:33:27.517Z,19.20
2022-11-14T00:36:14.858Z,22.45
2022-11-14T00:39:02.059Z,20.98
2022-11-14T00:41:49.180Z,15.50
2022-11-14T00:44:36.398Z,20.25
2022-11-14T00:47:22.973Z,19.90
2022-11-14T00:50:10.543Z,24.60
2022-11-14T00:52:57.141Z,16.60
2022-11-14T00:55:44.367Z,14.68
2022-11-14T00:58:31.946Z,19.23
2022-11-14T01:01:19.972Z,19.35
2022-11-14T01:04:07.089Z,19.00
2022-11-14T01:06:54.394Z,16.00
2022-11-14T01:09:40.942Z,16.75
2022-11-14T01:12:28.172Z,15.05
2022-11-14T01:15:14.650Z,14.30
2022-11-14T01:18:03.286Z,14.68
2022-11-14T01:20:50.520Z,14.65
2022-11-14T01:23:37.615Z,14.45
2022-11-14T01:26:24.819Z,14.77
2022-11-14T01:29:11.807Z,14.50
2022-11-14T01:31:58.466Z,14.35
2022-11-14T01:34:46.673Z,15.60
2022-11-14T01:37:33.606Z,16.58
2022-11-14T01:40:20.945Z,16.63
2022-11-14T01:43:18.200Z,17.75
2022-11-14T01:46:22.349Z,17.02
2022-11-14T01:49:46.611Z,17.15
2022-11-14T01:52:39.562Z,16.50
2022-11-14T01:55:27.721Z,18.15
2022-11-14T01:58:16.671Z,18.08
2022-11-14T02:01:03.946Z,18.02
2022-11-14T02:03:53.265Z,17.88
2022-11-14T02:06:41.330Z,16.50
2022-11-14T02:09:31.902Z,16.40
2022-11-14T02:12:19.978Z,16.70
2022-11-14T02:15:07.471Z,17.27
2022-11-14T02:17:55.546Z,17.00
2022-11-14T02:20:45.629Z,16.83
2022-11-14T02:23:33.201Z,16.45
2022-11-14T02:26:22.539Z,16.38
2022-11-14T02:29:10.843Z,16.58
2022-11-14T02:31:58.011Z,16.48
2022-11-14T02:34:44.854Z,15.35
2022-11-14T02:37:31.877Z,16.48
2022-11-14T02:40:19.909Z,15.85
2022-11-14T02:43:06.873Z,15.57
2022-11-14T02:45:53.889Z,15.18
2022-11-14T02:48:41.038Z,16.23
2022-11-14T02:51:27.711Z,16.35
2022-11-14T02:54:15.375Z,16.10
2022-11-14T02:57:02.935Z,15.50
2022-11-14T02:59:50.285Z,16.95
2022-11-14T03:02:40.686Z,17.38
2022-11-14T03:05:28.225Z,18.08
2022-11-14T03:08:14.716Z,17.27
2022-11-14T03:11:07.259Z,17.67
2022-11-14T03:13:54.310Z,17.67
2022-11-14T03:16:42.370Z,18.55
2022-11-14T03:19:28.940Z,17.67
2022-11-14T03:22:16.409Z,17.45
2022-11-14T03:25:28.126Z,16.90
2022-11-14T03:28:15.415Z,17.70
2022-11-14T03:31:02.251Z,18.17
2022-11-14T03:33:49.086Z,18.98
2022-11-14T03:36:35.690Z,19.20
2022-11-14T03:39:22.833Z,19.85
2022-11-14T03:42:09.795Z,18.65
2022-11-14T03:44:56.826Z,19.55
2022-11-14T03:47:43.491Z,19.50
2022-11-14T03:50:30.475Z,19.35
2022-11-14T03:53:17.133Z,19.05
2022-11-14T03:56:04.670Z,18.58
2022-11-14T03:58:51.314Z,19.00
2022-11-14T04:01:38.131Z,19.48
2022-11-14T04:04:24.645Z,18.45
2022-11-14T04:07:11.868Z,17.83
2022-11-14T04:09:58.736Z,17.27
2022-11-14T04:12:49.983Z,18.08
2022-11-14T04:15:36.618Z,17.92
2022-11-14T04:18:24.722Z,17.98
2022-11-14T04:21:11.371Z,16.90
2022-11-14T04:23:58.695Z,17.48
2022-11-14T04:26:49.136Z,18.08
2022-11-14T04:29:36.671Z,18.25
2022-11-14T04:32:23.509Z,18.25
2022-11-14T04:35:10.670Z,18.38
2022-11-14T04:37:57.576Z,20.73
2022-11-14T04:40:54.316Z,21.13
2022-11-14T04:43:40.984Z,20.65
2022-11-14T04:46:27.808Z,20.33
2022-11-14T04:49:14.203Z,19.42
2022-11-14T04:52:01.396Z,19.73
2022-11-14T04:54:48.208Z,19.50
2022-11-14T04:57:35.184Z,21.20
2022-11-14T05:00:22.356Z,19.40
2022-11-14T05:03:12.254Z,21.10
2022-11-14T05:06:02.194Z,20.85
2022-11-14T05:08:49.444Z,21.55
2022-11-14T05:11:35.957Z,21.30
2022-11-14T05:14:22.955Z,21.02
2022-11-14T05:17:09.500Z,20.73
2022-11-14T05:19:56.663Z,21.30
2022-11-14T05:22:43.935Z,23.10
2022-11-14T05:25:30.743Z,21.58
2022-11-14T05:28:17.161Z,21.10
2022-11-14T05:31:09.584Z,21.98
2022-11-14T05:36:43.586Z,21.60
2022-11-14T05:39:30.651Z,22.48
2022-11-14T05:42:17.589Z,23.42
2022-11-14T05:45:04.673Z,23.15
2022-11-14T05:47:54.317Z,21.42
2022-11-14T05:50:41.305Z,24.77
2022-11-14T05:53:47.113Z,22.13
2022-11-14T05:56:33.880Z,24.08
2022-11-14T05:59:21.080Z,23.48
2022-11-14T06:02:07.648Z,23.27
2022-11-14T06:04:55.261Z,23.73
2022-11-14T06:08:33.083Z,24.92
2022-11-14T06:11:28.735Z,23.92
2022-11-14T06:14:20.786Z,23.83
2022-11-14T06:17:08.202Z,23.95
2022-11-14T06:19:55.187Z,23.38
2022-11-14T06:22:42.617Z,23.10
2022-11-14T06:25:29.735Z,23.92
2022-11-14T06:28:16.579Z,24.55
2022-11-14T06:31:28.667Z,25.13
2022-11-14T06:37:02.519Z,23.17
2022-11-14T06:39:49.573Z,25.02
2022-11-14T06:42:36.125Z,24.23
2022-11-14T06:45:23.536Z,23.50
2022-11-14T06:48:10.355Z,23.95
2022-11-14T06:50:58.611Z,23.85
2022-11-14T06:53:46.295Z,24.00
2022-11-14T06:56:33.778Z,24.52
2022-11-14T06:59:20.654Z,23.40
2022-11-14T07:02:11.092Z,23.23
2022-11-14T07:04:57.798Z,23.38
2022-11-14T07:07:45.257Z,23.40
2022-11-14T07:10:32.344Z,24.15
2022-11-14T07:13:19.397Z,23.70
2022-11-14T07:16:06.302Z,22.80
2022-11-14T07:18:53.610Z,25.83
2022-11-14T07:21:41.074Z,23.65
2022-11-14T07:24:28.234Z,24.63
2022-11-14T07:27:14.740Z,23.88
2022-11-14T07:30:01.708Z,24.77
2022-11-14T07:32:55.357Z,23.13
2022-11-14T07:35:42.670Z,24.02
2022-11-14T07:38:32.453Z,26.17
2022-11-14T07:41:19.960Z,25.30
2022-11-14T07:44:06.495Z,26.05
2022-11-14T07:46:53.382Z,26.42
2022-11-14T07:49:40.126Z,25.67
2022-11-14T07:52:27.348Z,25.52
2022-11-14T07:55:14.035Z,26.90
2022-11-14T07:58:01.081Z,27.27
2022-11-14T08:00:47.710Z,26.02
2022-11-14T08:03:35.204Z,25.95
2022-11-14T08:06:21.907Z,28.33
2022-11-14T08:09:08.871Z,27.15
2022-11-14T08:11:55.544Z,25.98
2022-11-14T08:14:42.563Z,28.42
2022-11-14T08:17:29.238Z,26.65
2022-11-14T08:20:20.094Z,26.73
2022-11-14T08:23:07.418Z,28.10
2022-11-14T08:25:54.624Z,28.52
2022-11-14T08:28:41.449Z,28.30
2022-11-14T08:31:29.014Z,27.27
2022-11-14T08:34:15.643Z,28.45
2022-11-14T08:37:03.444Z,27.65
2022-11-14T08:39:50.195Z,28.23
2022-11-14T08:42:37.168Z,28.58
2022-11-14T08:45:23.734Z,27.70
2022-11-14T08:48:11.706Z,27.65
2022-11-14T08:51:02.436Z,28.23
2022-11-14T08:53:49.453Z,28.08
2022-11-14T08:56:36.213Z,28.17
2022-11-14T08:59:23.648Z,27.65
2022-11-14T09:02:11.757Z,26.10
2022-11-14T09:04:59.045Z,28.23
2022-11-14T09:07:45.794Z,27.15
2022-11-14T09:10:34.638Z,28.35
2022-11-14T09:13:21.265Z,27.95
2022-11-14T09:16:08.872Z,26.77
2022-11-14T09:18:55.581Z,25.02
2022-11-14T09:21:42.914Z,24.77
2022-11-14T09:24:29.422Z,25.30
2022-11-14T09:27:17.454Z,25.15
2022-11-14T09:30:05.097Z,25.52
2022-11-14T09:32:51.893Z,25.40
2022-11-14T09:35:38.971Z,26.27
2022-11-14T09:38:26.301Z,27.70
2022-11-14T09:41:34.964Z,25.95
2022-11-14T09:44:34.208Z,25.58
2022-11-14T09:47:26.526Z,26.83
2022-11-14T09:50:29.864Z,26.20
2022-11-14T09:53:25.908Z,29.05
2022-11-14T09:56:15.995Z,27.75
2022-11-14T09:59:02.716Z,26.27
2022-11-14T10:02:00.196Z,26.00
2022-11-14T10:05:11.717Z,24.60
2022-11-14T10:08:19.912Z,26.33
2022-11-14T10:11:14.813Z,26.55
2022-11-14T10:14:23.080Z,25.88
2022-11-14T10:17:29.040Z,26.13
2022-11-14T10:20:19.496Z,27.23
2022-11-14T10:23:34.996Z,27.67
2022-11-14T10:26:36.081Z,26.88
2022-11-14T10:29:54.518Z,27.30
2022-11-14T10:32:48.683Z,27.88
2022-11-14T10:36:05.677Z,28.88
2022-11-14T10:39:06.428Z,27.75
2022-11-14T10:42:02.055Z,26.10
2022-11-14T10:45:02.966Z,27.75
2022-11-14T10:51:06.945Z,28.50
2022-11-14T10:54:05.969Z,27.17
2022-11-14T10:56:55.456Z,27.65
2022-11-14T10:59:43.393Z,26.67
2022-11-14T11:02:48.895Z,26.92
2022-11-14T11:05:50.278Z,26.60
2022-11-14T11:09:02.593Z,25.65
2022-11-14T11:11:57.228Z,25.10
2022-11-14T11:14:46.278Z,25.17
2022-11-14T11:17:40.110Z,25.15
2022-11-14T11:20:41.602Z,25.95
2022-11-14T11:23:28.557Z,24.90
2022-11-14T11:26:32.236Z,26.75
2022-11-14T11:29:19.947Z,25.90
2022-11-14T11:32:09.043Z,25.42
2022-11-14T11:34:58.867Z,28.38
2022-11-14T11:37:57.537Z,28.77
2022-11-14T11:40:48.734Z,28.20
2022-11-14T11:44:05.143Z,28.65
2022-11-14T11:47:02.000Z,28.98
2022-11-14T11:49:54.258Z,28.10
2022-11-14T11:55:56.803Z,29.25
2022-11-14T11:58:48.781Z,29.25
2022-11-14T12:01:35.984Z,28.75
2022-11-14T12:04:22.967Z,28.10
2022-11-14T12:07:25.664Z,29.45
2022-11-14T12:10:24.814Z,29.55
2022-11-14T12:13:48.599Z,30.05
2022-11-14T12:17:01.853Z,28.23
2022-11-14T12:20:29.253Z,28.15
2022-11-14T12:23:30.051Z,30.00
2022-11-14T12:26:42.052Z,31.33
2022-11-14T12:30:08.610Z,30.13
2022-11-14T12:32:59.954Z,30.65
2022-11-14T12:35:56.775Z,29.88
2022-11-14T12:38:47.199Z,37.38
2022-11-14T12:41:38.245Z,33.03
2022-11-14T12:44:28.437Z,37.00
2022-11-14T12:47:18.836Z,33.78
2022-11-14T12:53:55.707Z,33.00
2022-11-14T12:56:59.827Z,32.67
2022-11-14T12:59:58.825Z,32.72
2022-11-14T13:03:40.619Z,30.63
2022-11-14T13:06:42.885Z,31.27
2022-11-14T13:09:40.195Z,32.33
2022-11-14T13:12:48.580Z,31.15
2022-11-14T13:16:12.705Z,33.13
2022-11-14T13:19:33.011Z,31.23
2022-11-14T13:22:37.234Z,34.97
2022-11-14T13:25:24.669Z,35.30
2022-11-14T13:28:48.147Z,34.72
2022-11-14T13:31:49.298Z,39.38
2022-11-14T13:34:45.210Z,36.47
2022-11-14T13:38:23.085Z,36.75
2022-11-14T13:41:47.429Z,37.13
2022-11-14T13:44:59.577Z,37.35
2022-11-14T13:47:52.586Z,36.88
2022-11-14T13:50:43.542Z,36.03
2022-11-14T13:53:32.532Z,36.75
2022-11-14T13:56:38.254Z,35.17
2022-11-14T13:59:36.429Z,35.92
2022-11-14T14:02:51.326Z,34.95
2022-11-14T14:05:48.031Z,37.67
2022-11-14T14:08:34.970Z,38.28
2022-11-14T14:11:41.654Z,37.47
2022-11-14T14:15:03.408Z,36.38
2022-11-14T14:17:57.955Z,36.72
2022-11-14T14:20:51.859Z,38.30
2022-11-14T14:23:52.291Z,34.40
2022-11-14T14:27:07.418Z,57.25
2022-11-14T14:30:10.942Z,37.97
2022-11-14T14:33:07.482Z,41.28
2022-11-14T14:36:23.016Z,37.88
2022-11-14T14:39:18.906Z,38.72
2022-11-14T14:42:12.336Z,51.05
2022-11-14T14:44:59.673Z,40.38
2022-11-14T14:47:58.962Z,44.45
2022-11-14T14:50:51.464Z,44.90
2022-11-14T14:53:38.292Z,41.65
2022-11-14T14:56:33.575Z,40.80
2022-11-14T14:59:25.617Z,39.58
2022-11-14T15:02:27.727Z,43.13
2022-11-14T15:05:28.601Z,37.88
2022-11-14T15:08:17.302Z,43.08
2022-11-14T15:11:06.068Z,61.55
2022-11-14T15:13:56.138Z,63.78
2022-11-14T15:16:45.185Z,37.85
2022-11-14T15:19:45.584Z,44.55
2022-11-14T15:22:33.837Z,65.40
2022-11-14T15:25:46.657Z,39.65
2022-11-14T15:28:34.214Z,41.25
2022-11-14T15:31:22.737Z,37.75
2022-11-14T15:34:34.266Z,43.35
2022-11-14T15:37:23.245Z,48.97
2022-11-14T15:40:22.293Z,42.25
2022-11-14T15:44:05.839Z,40.80
2022-11-14T15:46:53.160Z,41.30
2022-11-14T15:49:40.452Z,40.15
2022-11-14T15:53:07.238Z,40.05
2022-11-14T15:55:53.763Z,39.00
2022-11-14T15:58:44.221Z,42.80
2022-11-14T16:01:38.712Z,38.60
2022-11-14T16:04:33.372Z,36.88
2022-11-14T16:07:20.514Z,37.40
2022-11-14T16:10:18.363Z,38.38
2022-11-14T16:13:08.959Z,40.05
2022-11-14T17:15:28.211Z,43.40
2022-11-14T17:18:18.696Z,42.92
2022-11-14T18:06:12.129Z,45.05
2022-11-14T18:09:05.115Z,45.22
2022-11-14T18:11:52.125Z,43.80
2022-11-14T18:14:39.185Z,42.13
2022-11-14T18:17:25.747Z,43.50
2022-11-14T18:20:12.823Z,45.33
2022-11-14T18:22:59.627Z,54.22
2022-11-14T18:26:12.994Z,61.20
2022-11-14T18:29:04.365Z,72.32
2022-11-14T18:31:51.914Z,46.53
2022-11-14T18:34:41.094Z,63.30
2022-11-14T18:37:28.828Z,45.92
2022-11-14T18:40:16.793Z,51.95
2022-11-14T18:43:30.714Z,45.63
2022-11-14T18:46:21.807Z,46.88
2022-11-14T18:49:16.345Z,46.42
2022-11-14T18:52:28.162Z,46.90
2022-11-14T18:55:15.204Z,48.17
2022-11-14T18:58:02.327Z,47.15
2022-11-14T19:00:51.371Z,48.65
2022-11-14T19:03:39.324Z,41.45
2022-11-14T19:06:26.821Z,38.03
2022-11-14T19:09:18.575Z,45.60
2022-11-14T19:12:23.231Z,41.25
2022-11-14T19:15:11.349Z,47.63
2022-11-14T19:17:58.567Z,49.70
2022-11-14T19:21:00.499Z,41.75
2022-11-14T19:23:47.891Z,41.45
2022-11-14T19:26:36.262Z,42.60
2022-11-14T19:29:24.203Z,46.58
2022-11-14T19:33:02.870Z,40.50
2022-11-14T19:35:50.267Z,41.90
2022-11-14T19:38:38.189Z,43.60
2022-11-14T19:41:27.363Z,50.25
2022-11-14T19:45:21.164Z,44.65
2022-11-14T19:48:08.338Z,50.78
2022-11-14T19:51:22.549Z,43.42
2022-11-14T19:54:10.402Z,42.05
2022-11-14T19:56:57.258Z,69.57
2022-11-14T19:59:44.776Z,42.03
2022-11-14T20:02:34.016Z,57.00
2022-11-14T20:05:21.127Z,48.45
2022-11-14T20:08:08.002Z,60.92
2022-11-14T20:11:03.704Z,48.75
2022-11-14T20:13:50.764Z,48.92
2022-11-14T20:16:38.110Z,47.78
2022-11-14T20:19:27.834Z,46.70
2022-11-14T20:22:15.272Z,42.08
2022-11-14T20:25:01.980Z,49.35
2022-11-14T20:27:49.421Z,44.60
2022-11-14T20:30:40.473Z,41.75
2022-11-14T20:33:29.273Z,51.42
2022-11-14T20:36:24.786Z,75.68
2022-11-14T20:39:11.897Z,56.88
2022-11-14T20:41:58.736Z,50.40
2022-11-14T20:44:46.155Z,56.10
2022-11-14T20:47:33.047Z,44.90
2022-11-14T20:50:21.296Z,43.88
2022-11-14T20:53:08.199Z,46.15
2022-11-14T20:55:55.618Z,43.53
2022-11-14T20:58:58.637Z,38.53
2022-11-14T21:01:45.879Z,69.50
2022-11-14T21:04:32.677Z,48.83
2022-11-14T21:07:33.013Z,40.65
2022-11-14T21:10:41.480Z,37.90
2022-11-14T21:13:56.613Z,47.63
2022-11-14T21:16:44.198Z,48.83
2022-11-14T21:19:31.238Z,47.85
2022-11-14T21:22:43.683Z,41.38
2022-11-14T21:25:33.158Z,38.28
2022-11-14T21:28:20.376Z,38.75
2022-11-14T21:31:25.635Z,43.03
2022-11-14T21:34:15.327Z,41.70
2022-11-14T21:37:09.775Z,36.33
2022-11-14T21:40:03.909Z,41.75
2022-11-14T21:42:51.208Z,42.90
2022-11-14T21:45:37.811Z,36.13
2022-11-14T21:48:26.336Z,42.67
2022-11-14T21:51:38.673Z,37.83
2022-11-14T21:54:26.521Z,39.83
2022-11-14T21:57:13.559Z,36.78
2022-11-14T22:00:24.946Z,39.33
2022-11-14T22:03:34.751Z,34.55
2022-11-14T22:06:24.542Z,39.55
2022-11-14T22:09:11.598Z,37.00
2022-11-14T22:12:00.493Z,36.90
2022-11-14T22:14:47.797Z,36.33
2022-11-14T22:17:38.406Z,36.67
2022-11-14T22:20:31.194Z,38.20
2022-11-14T22:26:40.185Z,35.67
2022-11-14T22:29:29.105Z,34.20
2022-11-14T22:32:15.836Z,32.03
2022-11-14T22:35:28.067Z,32.75
2022-11-14T22:38:16.406Z,33.28
2022-11-14T22:41:32.671Z,33.90
2022-11-14T22:44:20.175Z,33.55
2022-11-14T22:47:07.303Z,35.45
2022-11-14T22:49:53.981Z,35.55
2022-11-14T22:52:40.992Z,35.90
2022-11-14T22:55:27.962Z,35.92
2022-11-14T22:58:15.128Z,34.97
2022-11-14T23:01:14.347Z,34.90
2022-11-14T23:04:05.030Z,35.85
2022-11-14T23:06:51.485Z,35.40
2022-11-14T23:09:38.880Z,36.67
2022-11-14T23:12:27.760Z,35.65
2022-11-14T23:15:14.844Z,36.88
2022-11-14T23:18:01.843Z,38.08
2022-11-14T23:20:49.083Z,35.67
2022-11-14T23:23:35.902Z,36.53
2022-11-14T23:26:25.225Z,37.08
2022-11-14T23:29:14.501Z,36.85
2022-11-14T23:32:02.217Z,36.20
2022-11-14T23:34:51.775Z,38.78
2022-11-14T23:37:39.532Z,40.03
2022-11-14T23:40:26.064Z,41.47
2022-11-14T23:43:13.076Z,41.35
2022-11-14T23:45:59.891Z,41.00
2022-11-14T23:48:47.127Z,42.42
2022-11-14T23:51:33.947Z,38.78
2022-11-14T23:54:21.345Z,38.83
2022-11-14T23:57:08.048Z,40.13
2022-11-14T23:59:55.096Z,40.10
